sensor_id;sensor_type;location;lat;lon;timestamp;temperature;humidity
70089;HTU21D;57460;47.134;19.888;2023-08-24T00:00:53;24.92;68.60
70089;HTU21D;57460;47.134;19.888;2023-08-24T00:03:19;24.92;67.53
70089;HTU21D;57460;47.134;19.888;2023-08-24T00:05:47;24.85;67.77
70089;HTU21D;57460;47.134;19.888;2023-08-24T00:08:13;24.76;67.31
70089;HTU21D;57460;47.134;19.888;2023-08-24T00:10:39;24.74;67.34
70089;HTU21D;57460;47.134;19.888;2023-08-24T00:13:05;24.74;67.81
70089;HTU21D;57460;47.134;19.888;2023-08-24T00:15:31;24.69;69.73
70089;HTU21D;57460;47.134;19.888;2023-08-24T00:17:57;24.57;70.01
70089;HTU21D;57460;47.134;19.888;2023-08-24T00:20:23;24.51;68.00
70089;HTU21D;57460;47.134;19.888;2023-08-24T00:22:49;24.45;70.41
70089;HTU21D;57460;47.134;19.888;2023-08-24T00:25:14;24.36;71.06
70089;HTU21D;57460;47.134;19.888;2023-08-24T00:27:41;24.26;72.70
70089;HTU21D;57460;47.134;19.888;2023-08-24T00:30:07;24.19;70.61
70089;HTU21D;57460;47.134;19.888;2023-08-24T00:32:34;24.17;72.23
70089;HTU21D;57460;47.134;19.888;2023-08-24T00:35:05;24.19;69.81
70089;HTU21D;57460;47.134;19.888;2023-08-24T00:37:36;24.27;69.33
70089;HTU21D;57460;47.134;19.888;2023-08-24T00:40:03;24.30;70.27
70089;HTU21D;57460;47.134;19.888;2023-08-24T00:42:43;24.28;71.44
70089;HTU21D;57460;47.134;19.888;2023-08-24T00:45:11;24.26;68.69
70089;HTU21D;57460;47.134;19.888;2023-08-24T00:47:43;24.31;66.17
70089;HTU21D;57460;47.134;19.888;2023-08-24T00:50:10;24.19;67.72
70089;HTU21D;57460;47.134;19.888;2023-08-24T00:52:40;24.13;69.63
70089;HTU21D;57460;47.134;19.888;2023-08-24T00:55:07;24.18;67.36
70089;HTU21D;57460;47.134;19.888;2023-08-24T00:57:33;24.27;66.42
70089;HTU21D;57460;47.134;19.888;2023-08-24T01:00:02;24.20;67.30
70089;HTU21D;57460;47.134;19.888;2023-08-24T01:02:28;24.13;67.54
70089;HTU21D;57460;47.134;19.888;2023-08-24T01:04:54;23.99;70.77
70089;HTU21D;57460;47.134;19.888;2023-08-24T01:07:20;24.03;68.02
70089;HTU21D;57460;47.134;19.888;2023-08-24T01:09:48;24.08;68.07
70089;HTU21D;57460;47.134;19.888;2023-08-24T01:15:19;23.98;69.36
70089;HTU21D;57460;47.134;19.888;2023-08-24T01:17:50;23.91;71.28
70089;HTU21D;57460;47.134;19.888;2023-08-24T01:20:17;23.96;69.85
70089;HTU21D;57460;47.134;19.888;2023-08-24T01:23:18;24.00;69.20
70089;HTU21D;57460;47.134;19.888;2023-08-24T01:25:54;23.99;69.89
70089;HTU21D;57460;47.134;19.888;2023-08-24T01:28:22;23.95;70.01
70089;HTU21D;57460;47.134;19.888;2023-08-24T01:30:49;23.98;68.46
70089;HTU21D;57460;47.134;19.888;2023-08-24T01:33:15;23.94;69.04
70089;HTU21D;57460;47.134;19.888;2023-08-24T01:35:41;23.92;69.70
70089;HTU21D;57460;47.134;19.888;2023-08-24T01:38:07;23.94;70.92
70089;HTU21D;57460;47.134;19.888;2023-08-24T01:40:42;23.96;70.49
70089;HTU21D;57460;47.134;19.888;2023-08-24T01:43:13;23.98;70.34
70089;HTU21D;57460;47.134;19.888;2023-08-24T01:45:42;24.00;70.23
70089;HTU21D;57460;47.134;19.888;2023-08-24T01:48:10;23.99;69.95
70089;HTU21D;57460;47.134;19.888;2023-08-24T01:50:36;23.99;69.87
70089;HTU21D;57460;47.134;19.888;2023-08-24T01:53:02;23.98;70.68
70089;HTU21D;57460;47.134;19.888;2023-08-24T01:55:29;23.89;69.51
70089;HTU21D;57460;47.134;19.888;2023-08-24T01:57:56;23.81;70.75
70089;HTU21D;57460;47.134;19.888;2023-08-24T02:00:24;23.81;71.19
70089;HTU21D;57460;47.134;19.888;2023-08-24T02:02:50;23.77;70.61
70089;HTU21D;57460;47.134;19.888;2023-08-24T02:05:16;23.77;70.35
70089;HTU21D;57460;47.134;19.888;2023-08-24T02:07:42;23.75;69.78
70089;HTU21D;57460;47.134;19.888;2023-08-24T02:10:07;23.75;72.05
70089;HTU21D;57460;47.134;19.888;2023-08-24T02:12:33;23.70;70.39
70089;HTU21D;57460;47.134;19.888;2023-08-24T02:14:59;23.59;71.93
70089;HTU21D;57460;47.134;19.888;2023-08-24T02:17:28;23.54;71.11
70089;HTU21D;57460;47.134;19.888;2023-08-24T02:19:55;23.55;69.90
70089;HTU21D;57460;47.134;19.888;2023-08-24T02:22:21;23.58;69.56
70089;HTU21D;57460;47.134;19.888;2023-08-24T02:24:46;23.54;73.36
70089;HTU21D;57460;47.134;19.888;2023-08-24T02:27:12;23.55;71.83
70089;HTU21D;57460;47.134;19.888;2023-08-24T02:29:38;23.57;72.66
70089;HTU21D;57460;47.134;19.888;2023-08-24T02:32:04;23.57;71.33
70089;HTU21D;57460;47.134;19.888;2023-08-24T02:34:30;23.57;71.14
70089;HTU21D;57460;47.134;19.888;2023-08-24T02:36:57;23.56;70.74
70089;HTU21D;57460;47.134;19.888;2023-08-24T02:39:22;23.58;69.78
70089;HTU21D;57460;47.134;19.888;2023-08-24T02:41:49;23.58;70.71
70089;HTU21D;57460;47.134;19.888;2023-08-24T02:44:15;23.57;70.72
70089;HTU21D;57460;47.134;19.888;2023-08-24T02:46:43;23.58;71.00
70089;HTU21D;57460;47.134;19.888;2023-08-24T02:49:09;23.57;70.92
70089;HTU21D;57460;47.134;19.888;2023-08-24T02:51:35;23.49;73.13
70089;HTU21D;57460;47.134;19.888;2023-08-24T02:54:01;23.34;74.20
70089;HTU21D;57460;47.134;19.888;2023-08-24T02:56:27;23.23;74.59
70089;HTU21D;57460;47.134;19.888;2023-08-24T02:58:53;23.18;74.11
70089;HTU21D;57460;47.134;19.888;2023-08-24T03:01:19;23.20;72.61
70089;HTU21D;57460;47.134;19.888;2023-08-24T03:03:45;23.24;72.24
70089;HTU21D;57460;47.134;19.888;2023-08-24T03:06:11;23.24;71.57
70089;HTU21D;57460;47.134;19.888;2023-08-24T03:08:36;23.21;71.61
70089;HTU21D;57460;47.134;19.888;2023-08-24T03:11:03;23.18;71.55
70089;HTU21D;57460;47.134;19.888;2023-08-24T03:13:30;23.18;71.56
70089;HTU21D;57460;47.134;19.888;2023-08-24T03:15:56;23.21;71.42
70089;HTU21D;57460;47.134;19.888;2023-08-24T03:18:22;23.22;71.98
70089;HTU21D;57460;47.134;19.888;2023-08-24T03:20:49;23.25;71.42
70089;HTU21D;57460;47.134;19.888;2023-08-24T03:23:15;23.24;72.28
70089;HTU21D;57460;47.134;19.888;2023-08-24T03:25:42;23.24;71.83
70089;HTU21D;57460;47.134;19.888;2023-08-24T03:28:11;23.22;72.58
70089;HTU21D;57460;47.134;19.888;2023-08-24T03:30:39;23.22;71.32
70089;HTU21D;57460;47.134;19.888;2023-08-24T03:33:05;23.23;71.28
70089;HTU21D;57460;47.134;19.888;2023-08-24T03:35:32;23.13;70.70
70089;HTU21D;57460;47.134;19.888;2023-08-24T03:37:58;23.06;71.33
70089;HTU21D;57460;47.134;19.888;2023-08-24T03:55:02;23.01;71.45
70089;HTU21D;57460;47.134;19.888;2023-08-24T03:57:28;23.01;71.11
70089;HTU21D;57460;47.134;19.888;2023-08-24T03:59:54;23.00;70.84
70089;HTU21D;57460;47.134;19.888;2023-08-24T04:02:20;22.98;70.48
70089;HTU21D;57460;47.134;19.888;2023-08-24T04:04:46;22.97;70.04
70089;HTU21D;57460;47.134;19.888;2023-08-24T04:07:12;22.99;70.58
70089;HTU21D;57460;47.134;19.888;2023-08-24T04:09:37;22.99;71.53
70089;HTU21D;57460;47.134;19.888;2023-08-24T04:12:03;22.95;71.00
70089;HTU21D;57460;47.134;19.888;2023-08-24T04:14:29;22.93;70.58
70089;HTU21D;57460;47.134;19.888;2023-08-24T04:16:55;22.94;70.25
70089;HTU21D;57460;47.134;19.888;2023-08-24T04:19:21;22.96;70.52
70089;HTU21D;57460;47.134;19.888;2023-08-24T04:21:47;22.98;70.35
70089;HTU21D;57460;47.134;19.888;2023-08-24T04:24:12;23.01;70.69
70089;HTU21D;57460;47.134;19.888;2023-08-24T04:26:38;23.03;69.79
70089;HTU21D;57460;47.134;19.888;2023-08-24T04:29:04;23.05;71.64
70089;HTU21D;57460;47.134;19.888;2023-08-24T04:31:30;23.02;71.69
70089;HTU21D;57460;47.134;19.888;2023-08-24T04:33:55;23.01;73.72
70089;HTU21D;57460;47.134;19.888;2023-08-24T04:36:21;23.01;71.33
70089;HTU21D;57460;47.134;19.888;2023-08-24T04:38:47;22.99;73.09
70089;HTU21D;57460;47.134;19.888;2023-08-24T04:41:12;22.99;73.73
70089;HTU21D;57460;47.134;19.888;2023-08-24T04:43:38;23.01;73.44
70089;HTU21D;57460;47.134;19.888;2023-08-24T04:46:05;23.05;75.43
70089;HTU21D;57460;47.134;19.888;2023-08-24T04:48:30;23.07;73.93
70089;HTU21D;57460;47.134;19.888;2023-08-24T04:50:59;23.09;74.12
70089;HTU21D;57460;47.134;19.888;2023-08-24T04:53:26;23.15;74.17
70089;HTU21D;57460;47.134;19.888;2023-08-24T04:55:52;23.22;73.28
70089;HTU21D;57460;47.134;19.888;2023-08-24T04:58:18;23.24;75.17
70089;HTU21D;57460;47.134;19.888;2023-08-24T05:00:44;23.27;74.51
70089;HTU21D;57460;47.134;19.888;2023-08-24T05:03:10;23.31;73.56
70089;HTU21D;57460;47.134;19.888;2023-08-24T05:05:36;23.37;74.74
70089;HTU21D;57460;47.134;19.888;2023-08-24T05:08:04;23.45;73.70
70089;HTU21D;57460;47.134;19.888;2023-08-24T05:10:37;23.52;73.05
70089;HTU21D;57460;47.134;19.888;2023-08-24T05:13:04;23.58;75.19
70089;HTU21D;57460;47.134;19.888;2023-08-24T05:15:30;23.65;74.73
70089;HTU21D;57460;47.134;19.888;2023-08-24T05:17:56;23.71;74.95
70089;HTU21D;57460;47.134;19.888;2023-08-24T05:20:28;23.79;74.08
70089;HTU21D;57460;47.134;19.888;2023-08-24T05:22:54;23.84;75.65
70089;HTU21D;57460;47.134;19.888;2023-08-24T05:25:21;23.94;74.53
70089;HTU21D;57460;47.134;19.888;2023-08-24T05:27:47;24.03;73.32
70089;HTU21D;57460;47.134;19.888;2023-08-24T05:30:13;24.12;74.43
70089;HTU21D;57460;47.134;19.888;2023-08-24T05:32:39;24.24;70.34
70089;HTU21D;57460;47.134;19.888;2023-08-24T05:35:05;24.30;71.63
70089;HTU21D;57460;47.134;19.888;2023-08-24T05:37:32;24.42;73.10
70089;HTU21D;57460;47.134;19.888;2023-08-24T05:40:02;24.58;69.38
70089;HTU21D;57460;47.134;19.888;2023-08-24T05:42:28;24.72;70.89
70089;HTU21D;57460;47.134;19.888;2023-08-24T05:44:54;24.85;70.90
70089;HTU21D;57460;47.134;19.888;2023-08-24T05:47:22;24.98;71.57
70089;HTU21D;57460;47.134;19.888;2023-08-24T05:49:48;25.16;67.78
70089;HTU21D;57460;47.134;19.888;2023-08-24T05:52:14;25.24;67.72
70089;HTU21D;57460;47.134;19.888;2023-08-24T05:54:40;25.32;67.82
70089;HTU21D;57460;47.134;19.888;2023-08-24T05:57:06;25.33;70.99
70089;HTU21D;57460;47.134;19.888;2023-08-24T05:59:34;25.45;68.39
70089;HTU21D;57460;47.134;19.888;2023-08-24T06:02:00;25.60;71.33
70089;HTU21D;57460;47.134;19.888;2023-08-24T06:04:26;25.72;67.87
70089;HTU21D;57460;47.134;19.888;2023-08-24T06:06:52;25.75;70.90
70089;HTU21D;57460;47.134;19.888;2023-08-24T06:09:18;25.82;70.22
70089;HTU21D;57460;47.134;19.888;2023-08-24T06:11:43;25.92;70.23
70089;HTU21D;57460;47.134;19.888;2023-08-24T06:14:09;26.07;67.74
70089;HTU21D;57460;47.134;19.888;2023-08-24T06:16:35;26.17;68.36
70089;HTU21D;57460;47.134;19.888;2023-08-24T06:19:01;26.25;67.99
70089;HTU21D;57460;47.134;19.888;2023-08-24T06:21:27;26.34;68.54
70089;HTU21D;57460;47.134;19.888;2023-08-24T06:23:53;26.43;68.24
70089;HTU21D;57460;47.134;19.888;2023-08-24T06:26:39;26.58;66.84
70089;HTU21D;57460;47.134;19.888;2023-08-24T06:29:11;26.69;66.67
70089;HTU21D;57460;47.134;19.888;2023-08-24T06:31:36;26.72;66.12
70089;HTU21D;57460;47.134;19.888;2023-08-24T06:34:02;26.80;66.88
70089;HTU21D;57460;47.134;19.888;2023-08-24T06:42:34;27.20;66.27
70089;HTU21D;57460;47.134;19.888;2023-08-24T06:50:20;27.41;64.80
70089;HTU21D;57460;47.134;19.888;2023-08-24T07:01:30;27.78;61.86
70089;HTU21D;57460;47.134;19.888;2023-08-24T07:16:50;27.99;60.01
70089;HTU21D;57460;47.134;19.888;2023-08-24T08:13:25;30.34;54.14
70089;HTU21D;57460;47.134;19.888;2023-08-24T08:19:41;30.24;53.61
70089;HTU21D;57460;47.134;19.888;2023-08-24T08:39:37;31.06;53.17
70089;HTU21D;57460;47.134;19.888;2023-08-24T08:42:15;31.33;53.50
70089;HTU21D;57460;47.134;19.888;2023-08-24T08:44:46;31.45;50.80
70089;HTU21D;57460;47.134;19.888;2023-08-24T08:47:13;31.54;47.62
70089;HTU21D;57460;47.134;19.888;2023-08-24T08:49:48;31.60;47.66
70089;HTU21D;57460;47.134;19.888;2023-08-24T08:52:18;31.60;50.11
70089;HTU21D;57460;47.134;19.888;2023-08-24T09:16:49;32.74;45.45
70089;HTU21D;57460;47.134;19.888;2023-08-24T09:22:07;33.28;43.08
70089;HTU21D;57460;47.134;19.888;2023-08-24T09:27:28;33.73;43.26
70089;HTU21D;57460;47.134;19.888;2023-08-24T09:29:54;33.86;43.18
70089;HTU21D;57460;47.134;19.888;2023-08-24T09:32:44;34.01;41.67
70089;HTU21D;57460;47.134;19.888;2023-08-24T09:35:40;33.75;44.12
70089;HTU21D;57460;47.134;19.888;2023-08-24T09:38:30;33.37;39.70
70089;HTU21D;57460;47.134;19.888;2023-08-24T09:41:25;33.38;39.68
70089;HTU21D;57460;47.134;19.888;2023-08-24T09:44:13;33.55;43.80
70089;HTU21D;57460;47.134;19.888;2023-08-24T09:46:50;33.68;40.71
70089;HTU21D;57460;47.134;19.888;2023-08-24T09:49:19;33.91;42.93
70089;HTU21D;57460;47.134;19.888;2023-08-24T09:52:14;34.22;39.24
70089;HTU21D;57460;47.134;19.888;2023-08-24T09:54:58;34.47;41.81
70089;HTU21D;57460;47.134;19.888;2023-08-24T09:57:42;34.39;39.62
70089;HTU21D;57460;47.134;19.888;2023-08-24T10:00:13;34.52;36.96
70089;HTU21D;57460;47.134;19.888;2023-08-24T10:03:06;34.27;36.28
70089;HTU21D;57460;47.134;19.888;2023-08-24T10:05:53;34.23;39.53
70089;HTU21D;57460;47.134;19.888;2023-08-24T10:08:26;34.34;37.80
70089;HTU21D;57460;47.134;19.888;2023-08-24T10:10:58;34.53;38.89
70089;HTU21D;57460;47.134;19.888;2023-08-24T10:13:50;34.83;37.89
70089;HTU21D;57460;47.134;19.888;2023-08-24T10:16:23;34.94;37.66
70089;HTU21D;57460;47.134;19.888;2023-08-24T10:18:50;34.96;37.56
70089;HTU21D;57460;47.134;19.888;2023-08-24T10:21:18;35.09;36.71
70089;HTU21D;57460;47.134;19.888;2023-08-24T10:23:52;35.41;38.20
70089;HTU21D;57460;47.134;19.888;2023-08-24T10:26:23;35.63;37.37
70089;HTU21D;57460;47.134;19.888;2023-08-24T10:28:53;35.63;31.26
70089;HTU21D;57460;47.134;19.888;2023-08-24T10:31:20;35.67;36.95
70089;HTU21D;57460;47.134;19.888;2023-08-24T10:33:47;35.85;36.40
70089;HTU21D;57460;47.134;19.888;2023-08-24T10:36:15;35.88;33.02
70089;HTU21D;57460;47.134;19.888;2023-08-24T10:38:46;35.83;34.91
70089;HTU21D;57460;47.134;19.888;2023-08-24T10:41:21;35.66;35.64
70089;HTU21D;57460;47.134;19.888;2023-08-24T10:43:50;35.79;36.02
70089;HTU21D;57460;47.134;19.888;2023-08-24T10:46:19;35.85;36.40
70089;HTU21D;57460;47.134;19.888;2023-08-24T10:51:24;35.74;36.23
70089;HTU21D;57460;47.134;19.888;2023-08-24T10:53:57;35.88;34.69
70089;HTU21D;57460;47.134;19.888;2023-08-24T10:56:37;36.02;33.84
70089;HTU21D;57460;47.134;19.888;2023-08-24T10:59:19;36.19;35.85
70089;HTU21D;57460;47.134;19.888;2023-08-24T11:01:56;36.36;35.29
70089;HTU21D;57460;47.134;19.888;2023-08-24T11:04:24;36.55;35.10
70089;HTU21D;57460;47.134;19.888;2023-08-24T11:06:55;36.57;35.21
70089;HTU21D;57460;47.134;19.888;2023-08-24T11:09:23;36.58;34.60
70089;HTU21D;57460;47.134;19.888;2023-08-24T11:11:58;36.45;34.74
70089;HTU21D;57460;47.134;19.888;2023-08-24T11:14:24;36.54;34.11
70089;HTU21D;57460;47.134;19.888;2023-08-24T11:17:01;36.70;34.48
70089;HTU21D;57460;47.134;19.888;2023-08-24T11:19:52;36.78;30.50
70089;HTU21D;57460;47.134;19.888;2023-08-24T11:22:18;36.89;33.63
70089;HTU21D;57460;47.134;19.888;2023-08-24T11:24:55;36.68;28.57
70089;HTU21D;57460;47.134;19.888;2023-08-24T11:27:23;36.64;32.86
70089;HTU21D;57460;47.134;19.888;2023-08-24T11:29:59;36.89;32.02
70089;HTU21D;57460;47.134;19.888;2023-08-24T11:32:25;36.71;30.09
70089;HTU21D;57460;47.134;19.888;2023-08-24T11:34:54;36.74;32.32
70089;HTU21D;57460;47.134;19.888;2023-08-24T11:37:20;36.62;30.52
70089;HTU21D;57460;47.134;19.888;2023-08-24T11:39:46;36.53;31.80
70089;HTU21D;57460;47.134;19.888;2023-08-24T11:42:18;36.42;29.58
70089;HTU21D;57460;47.134;19.888;2023-08-24T11:44:48;36.47;30.54
70089;HTU21D;57460;47.134;19.888;2023-08-24T11:47:20;36.64;32.17
70089;HTU21D;57460;47.134;19.888;2023-08-24T11:49:49;36.83;32.28
70089;HTU21D;57460;47.134;19.888;2023-08-24T11:52:16;36.97;26.94
70089;HTU21D;57460;47.134;19.888;2023-08-24T11:54:45;37.06;30.93
70089;HTU21D;57460;47.134;19.888;2023-08-24T11:57:11;37.05;28.54
70089;HTU21D;57460;47.134;19.888;2023-08-24T11:59:39;36.90;28.58
70089;HTU21D;57460;47.134;19.888;2023-08-24T12:02:12;36.95;30.52
70089;HTU21D;57460;47.134;19.888;2023-08-24T12:04:39;36.80;28.26
70089;HTU21D;57460;47.134;19.888;2023-08-24T12:07:11;36.91;29.93
70089;HTU21D;57460;47.134;19.888;2023-08-24T12:09:41;37.16;29.35
70089;HTU21D;57460;47.134;19.888;2023-08-24T12:12:14;37.16;29.27
70089;HTU21D;57460;47.134;19.888;2023-08-24T12:14:47;36.99;30.47
70089;HTU21D;57460;47.134;19.888;2023-08-24T12:17:16;37.08;29.68
70089;HTU21D;57460;47.134;19.888;2023-08-24T12:19:43;37.19;29.80
70089;HTU21D;57460;47.134;19.888;2023-08-24T12:22:15;37.25;29.95
70089;HTU21D;57460;47.134;19.888;2023-08-24T12:24:46;37.06;30.52
70089;HTU21D;57460;47.134;19.888;2023-08-24T12:27:25;37.10;30.47
70089;HTU21D;57460;47.134;19.888;2023-08-24T12:29:59;37.20;30.84
70089;HTU21D;57460;47.134;19.888;2023-08-24T12:32:25;37.32;29.64
70089;HTU21D;57460;47.134;19.888;2023-08-24T12:34:57;37.18;29.42
70089;HTU21D;57460;47.134;19.888;2023-08-24T12:37:24;37.21;28.93
70089;HTU21D;57460;47.134;19.888;2023-08-24T12:39:49;37.25;28.16
70089;HTU21D;57460;47.134;19.888;2023-08-24T12:42:21;37.46;27.61
70089;HTU21D;57460;47.134;19.888;2023-08-24T12:44:49;37.17;27.79
70089;HTU21D;57460;47.134;19.888;2023-08-24T12:47:17;37.14;28.45
70089;HTU21D;57460;47.134;19.888;2023-08-24T12:49:43;37.30;28.77
70089;HTU21D;57460;47.134;19.888;2023-08-24T12:52:12;37.06;27.73
70089;HTU21D;57460;47.134;19.888;2023-08-24T12:54:38;37.01;28.13
70089;HTU21D;57460;47.134;19.888;2023-08-24T12:57:06;37.04;26.81
70089;HTU21D;57460;47.134;19.888;2023-08-24T12:59:37;37.07;26.72
70089;HTU21D;57460;47.134;19.888;2023-08-24T13:02:06;37.14;25.08
70089;HTU21D;57460;47.134;19.888;2023-08-24T13:04:32;37.40;24.83
70089;HTU21D;57460;47.134;19.888;2023-08-24T13:07:05;37.25;22.40
70089;HTU21D;57460;47.134;19.888;2023-08-24T13:09:31;37.16;23.56
70089;HTU21D;57460;47.134;19.888;2023-08-24T13:11:57;37.03;22.04
70089;HTU21D;57460;47.134;19.888;2023-08-24T13:14:23;36.76;22.37
70089;HTU21D;57460;47.134;19.888;2023-08-24T13:16:57;36.81;23.57
70089;HTU21D;57460;47.134;19.888;2023-08-24T13:19:23;36.58;23.57
70089;HTU21D;57460;47.134;19.888;2023-08-24T13:21:49;36.60;24.01
70089;HTU21D;57460;47.134;19.888;2023-08-24T13:24:17;36.80;23.69
70089;HTU21D;57460;47.134;19.888;2023-08-24T13:26:43;36.83;25.44
70089;HTU21D;57460;47.134;19.888;2023-08-24T13:29:09;36.71;22.56
70089;HTU21D;57460;47.134;19.888;2023-08-24T13:31:35;36.73;25.15
70089;HTU21D;57460;47.134;19.888;2023-08-24T13:34:01;36.87;25.02
70089;HTU21D;57460;47.134;19.888;2023-08-24T13:36:31;36.87;25.25
70089;HTU21D;57460;47.134;19.888;2023-08-24T13:38:57;36.91;24.91
70089;HTU21D;57460;47.134;19.888;2023-08-24T13:41:23;36.86;24.82
70089;HTU21D;57460;47.134;19.888;2023-08-24T13:43:52;37.01;25.14
70089;HTU21D;57460;47.134;19.888;2023-08-24T13:46:20;37.01;24.63
70089;HTU21D;57460;47.134;19.888;2023-08-24T13:48:46;36.90;22.69
70089;HTU21D;57460;47.134;19.888;2023-08-24T13:51:12;36.81;21.15
70089;HTU21D;57460;47.134;19.888;2023-08-24T13:53:38;36.76;23.10
70089;HTU21D;57460;47.134;19.888;2023-08-24T13:56:05;36.90;24.49
70089;HTU21D;57460;47.134;19.888;2023-08-24T13:58:32;37.04;24.51
70089;HTU21D;57460;47.134;19.888;2023-08-24T14:01:00;37.04;24.51
70089;HTU21D;57460;47.134;19.888;2023-08-24T14:03:39;37.13;23.77
70089;HTU21D;57460;47.134;19.888;2023-08-24T14:06:09;37.31;23.95
70089;HTU21D;57460;47.134;19.888;2023-08-24T14:08:41;37.36;23.30
70089;HTU21D;57460;47.134;19.888;2023-08-24T14:11:06;37.25;22.76
70089;HTU21D;57460;47.134;19.888;2023-08-24T14:13:32;37.18;19.89
70089;HTU21D;57460;47.134;19.888;2023-08-24T14:15:58;37.14;20.99
70089;HTU21D;57460;47.134;19.888;2023-08-24T14:18:24;37.23;22.37
70089;HTU21D;57460;47.134;19.888;2023-08-24T14:20:51;37.23;20.82
70089;HTU21D;57460;47.134;19.888;2023-08-24T14:23:17;37.12;20.18
70089;HTU21D;57460;47.134;19.888;2023-08-24T14:25:43;37.11;23.43
70089;HTU21D;57460;47.134;19.888;2023-08-24T14:28:18;37.17;22.56
70089;HTU21D;57460;47.134;19.888;2023-08-24T14:30:44;36.93;20.32
70089;HTU21D;57460;47.134;19.888;2023-08-24T14:33:10;36.83;19.79
70089;HTU21D;57460;47.134;19.888;2023-08-24T14:36:01;36.61;21.12
70089;HTU21D;57460;47.134;19.888;2023-08-24T14:38:27;36.56;20.54
70089;HTU21D;57460;47.134;19.888;2023-08-24T14:40:53;36.64;21.87
70089;HTU21D;57460;47.134;19.888;2023-08-24T14:43:19;36.74;21.66
70089;HTU21D;57460;47.134;19.888;2023-08-24T14:45:45;36.84;21.78
70089;HTU21D;57460;47.134;19.888;2023-08-24T14:48:18;36.82;22.74
70089;HTU21D;57460;47.134;19.888;2023-08-24T14:51:02;36.72;20.93
70089;HTU21D;57460;47.134;19.888;2023-08-24T14:53:36;36.53;22.07
70089;HTU21D;57460;47.134;19.888;2023-08-24T14:56:11;36.39;22.31
70089;HTU21D;57460;47.134;19.888;2023-08-24T14:59:02;36.30;21.73
70089;HTU21D;57460;47.134;19.888;2023-08-24T15:01:34;36.28;21.44
70089;HTU21D;57460;47.134;19.888;2023-08-24T15:04:00;36.15;22.15
70089;HTU21D;57460;47.134;19.888;2023-08-24T15:06:29;36.11;21.24
70089;HTU21D;57460;47.134;19.888;2023-08-24T15:09:02;36.01;22.60
70089;HTU21D;57460;47.134;19.888;2023-08-24T15:11:56;35.87;22.29
70089;HTU21D;57460;47.134;19.888;2023-08-24T15:17:49;35.56;21.79
70089;HTU21D;57460;47.134;19.888;2023-08-24T15:20:26;35.58;22.25
70089;HTU21D;57460;47.134;19.888;2023-08-24T15:23:26;35.45;22.14
70089;HTU21D;57460;47.134;19.888;2023-08-24T15:27:02;35.45;22.12
70089;HTU21D;57460;47.134;19.888;2023-08-24T15:30:18;35.55;22.50
70089;HTU21D;57460;47.134;19.888;2023-08-24T15:32:56;35.58;22.40
70089;HTU21D;57460;47.134;19.888;2023-08-24T15:35:22;35.56;21.18
70089;HTU21D;57460;47.134;19.888;2023-08-24T15:38:00;35.62;22.82
70089;HTU21D;57460;47.134;19.888;2023-08-24T15:40:51;35.67;22.63
70089;HTU21D;57460;47.134;19.888;2023-08-24T15:44:12;35.64;22.87
70089;HTU21D;57460;47.134;19.888;2023-08-24T15:47:13;35.57;22.88
70089;HTU21D;57460;47.134;19.888;2023-08-24T15:49:42;35.54;23.41
70089;HTU21D;57460;47.134;19.888;2023-08-24T15:55:12;35.35;23.01
70089;HTU21D;57460;47.134;19.888;2023-08-24T15:57:44;35.30;23.59
70089;HTU21D;57460;47.134;19.888;2023-08-24T16:00:25;35.24;23.45
70089;HTU21D;57460;47.134;19.888;2023-08-24T16:03:54;35.20;23.45
70089;HTU21D;57460;47.134;19.888;2023-08-24T16:09:54;34.92;25.15
70089;HTU21D;57460;47.134;19.888;2023-08-24T16:12:46;34.85;25.23
70089;HTU21D;57460;47.134;19.888;2023-08-24T16:15:19;34.81;25.14
70089;HTU21D;57460;47.134;19.888;2023-08-24T16:17:49;34.78;25.68
70089;HTU21D;57460;47.134;19.888;2023-08-24T16:20:39;34.73;26.50
70089;HTU21D;57460;47.134;19.888;2023-08-24T16:23:17;34.65;27.20
70089;HTU21D;57460;47.134;19.888;2023-08-24T16:29:30;34.45;27.90
70089;HTU21D;57460;47.134;19.888;2023-08-24T16:32:50;34.29;27.82
70089;HTU21D;57460;47.134;19.888;2023-08-24T16:35:52;34.15;28.03
70089;HTU21D;57460;47.134;19.888;2023-08-24T16:39:25;34.00;28.36
70089;HTU21D;57460;47.134;19.888;2023-08-24T16:42:39;33.91;30.61
70089;HTU21D;57460;47.134;19.888;2023-08-24T16:45:38;33.73;30.01
70089;HTU21D;57460;47.134;19.888;2023-08-24T16:48:34;33.52;30.70
70089;HTU21D;57460;47.134;19.888;2023-08-24T16:51:00;33.34;31.90
70089;HTU21D;57460;47.134;19.888;2023-08-24T16:53:28;33.17;32.23
70089;HTU21D;57460;47.134;19.888;2023-08-24T16:55:54;32.99;32.47
70089;HTU21D;57460;47.134;19.888;2023-08-24T16:58:30;32.76;33.17
70089;HTU21D;57460;47.134;19.888;2023-08-24T17:01:20;32.52;34.77
70089;HTU21D;57460;47.134;19.888;2023-08-24T17:03:52;32.28;34.61
70089;HTU21D;57460;47.134;19.888;2023-08-24T17:06:18;32.07;34.99
70089;HTU21D;57460;47.134;19.888;2023-08-24T17:09:02;31.84;35.52
70089;HTU21D;57460;47.134;19.888;2023-08-24T17:11:35;31.63;36.30
70089;HTU21D;57460;47.134;19.888;2023-08-24T17:14:17;31.40;36.17
70089;HTU21D;57460;47.134;19.888;2023-08-24T17:17:17;31.16;37.95
70089;HTU21D;57460;47.134;19.888;2023-08-24T17:19:54;30.95;36.74
70089;HTU21D;57460;47.134;19.888;2023-08-24T17:22:33;30.76;37.37
70089;HTU21D;57460;47.134;19.888;2023-08-24T17:25:03;30.61;37.49
70089;HTU21D;57460;47.134;19.888;2023-08-24T17:27:30;30.42;38.76
70089;HTU21D;57460;47.134;19.888;2023-08-24T17:29:59;30.25;38.30
70089;HTU21D;57460;47.134;19.888;2023-08-24T17:32:34;30.10;40.41
70089;HTU21D;57460;47.134;19.888;2023-08-24T17:35:04;29.92;39.46
70089;HTU21D;57460;47.134;19.888;2023-08-24T17:37:30;29.76;40.38
70089;HTU21D;57460;47.134;19.888;2023-08-24T17:39:56;29.58;40.58
70089;HTU21D;57460;47.134;19.888;2023-08-24T17:42:25;29.39;40.47
70089;HTU21D;57460;47.134;19.888;2023-08-24T17:44:51;29.27;40.30
70089;HTU21D;57460;47.134;19.888;2023-08-24T17:47:18;29.12;42.03
70089;HTU21D;57460;47.134;19.888;2023-08-24T17:49:44;28.95;41.22
70089;HTU21D;57460;47.134;19.888;2023-08-24T17:52:10;28.80;42.55
70089;HTU21D;57460;47.134;19.888;2023-08-24T17:54:38;28.63;41.71
70089;HTU21D;57460;47.134;19.888;2023-08-24T17:57:04;28.52;42.29
70089;HTU21D;57460;47.134;19.888;2023-08-24T17:59:30;28.31;43.77
70089;HTU21D;57460;47.134;19.888;2023-08-24T18:01:56;28.09;46.55
70089;HTU21D;57460;47.134;19.888;2023-08-24T18:04:23;27.84;47.02
70089;HTU21D;57460;47.134;19.888;2023-08-24T18:06:49;27.68;44.37
70089;HTU21D;57460;47.134;19.888;2023-08-24T18:09:18;27.60;45.06
70089;HTU21D;57460;47.134;19.888;2023-08-24T18:11:44;27.53;45.30
70089;HTU21D;57460;47.134;19.888;2023-08-24T18:14:10;27.44;45.74
70089;HTU21D;57460;47.134;19.888;2023-08-24T18:16:37;27.36;46.19